createdAt,value
2022-11-10T00:00:11.403Z,9.81
2022-11-10T00:00:45.376Z,9.82
2022-11-10T00:01:07.107Z,9.82
2022-11-10T00:01:19.693Z,9.81
2022-11-10T00:01:32.261Z,9.79
2022-11-10T00:01:44.803Z,9.81
2022-11-10T00:01:57.406Z,9.80
2022-11-10T00:02:09.997Z,9.81
2022-11-10T00:02:22.579Z,9.81
2022-11-10T00:02:35.783Z,9.79
2022-11-10T00:02:49.362Z,9.82
2022-11-10T00:03:02.424Z,9.80
2022-11-10T00:03:15.053Z,9.81
2022-11-10T00:03:28.367Z,9.80
2022-11-10T00:03:41.100Z,9.82
2022-11-10T00:03:55.642Z,9.80
2022-11-10T00:04:08.282Z,9.81
2022-11-10T00:04:20.937Z,9.80
2022-11-10T00:04:33.644Z,9.82
2022-11-10T00:04:46.254Z,9.81
2022-11-10T00:04:58.995Z,9.82
2022-11-10T00:05:11.958Z,9.80
2022-11-10T00:05:24.556Z,9.82
2022-11-10T00:05:39.843Z,9.83
2022-11-10T00:05:52.415Z,9.82
2022-11-10T00:06:06.728Z,9.80
2022-11-10T00:06:19.312Z,9.83
2022-11-10T00:06:32.060Z,9.82
2022-11-10T00:06:46.728Z,9.83
2022-11-10T00:07:00.480Z,9.82
2022-11-10T00:07:13.213Z,9.81
2022-11-10T00:07:26.570Z,9.83
2022-11-10T00:07:40.123Z,9.83
2022-11-10T00:07:52.774Z,9.82
2022-11-10T00:08:07.616Z,9.83
2022-11-10T00:08:21.278Z,9.83
2022-11-10T00:08:34.286Z,9.82
2022-11-10T00:08:46.914Z,9.83
2022-11-10T00:08:59.755Z,9.82
2022-11-10T00:09:12.707Z,9.83
2022-11-10T00:09:25.596Z,9.82
2022-11-10T00:09:39.167Z,9.81
2022-11-10T00:09:52.748Z,9.83
2022-11-10T00:10:06.204Z,9.82
2022-11-10T00:10:18.916Z,9.84
2022-11-10T00:10:32.039Z,9.84
2022-11-10T00:11:01.424Z,9.83
2022-11-10T00:11:15.019Z,9.83
2022-11-10T00:11:27.576Z,9.84
2022-11-10T00:11:40.299Z,9.83
2022-11-10T00:11:52.854Z,9.82
2022-11-10T00:12:06.056Z,9.84
2022-11-10T00:12:18.669Z,9.83
2022-11-10T00:12:32.442Z,9.84
2022-11-10T00:12:45.024Z,9.83
2022-11-10T00:13:01.980Z,9.84
2022-11-10T00:13:14.579Z,9.86
2022-11-10T00:13:29.911Z,9.85
2022-11-10T00:13:57.394Z,9.84
2022-11-10T00:14:29.143Z,9.87
2022-11-10T00:15:00.278Z,9.88
2022-11-10T00:15:31.356Z,9.88
2022-11-10T00:16:00.167Z,9.89
2022-11-10T00:16:31.494Z,9.88
2022-11-10T00:17:02.044Z,9.91
2022-11-10T00:17:15.307Z,9.90
2022-11-10T00:17:28.848Z,9.90
2022-11-10T00:17:41.849Z,9.90
2022-11-10T00:17:54.419Z,9.91
2022-11-10T00:18:06.966Z,9.89
2022-11-10T00:18:19.475Z,9.92
2022-11-10T00:18:32.054Z,9.91
2022-11-10T00:18:45.857Z,9.91
2022-11-10T00:18:58.390Z,9.90
2022-11-10T00:19:10.968Z,9.93
2022-11-10T00:19:23.527Z,9.91
2022-11-10T00:19:36.156Z,9.93
2022-11-10T00:19:48.714Z,9.92
2022-11-10T00:20:01.263Z,9.92
2022-11-10T00:20:14.828Z,9.92
2022-11-10T00:20:27.374Z,9.93
2022-11-10T00:20:39.935Z,9.91
2022-11-10T00:20:52.489Z,9.93
2022-11-10T00:21:06.590Z,9.93
2022-11-10T00:21:20.317Z,9.91
2022-11-10T00:21:32.841Z,9.94
2022-11-10T00:21:46.427Z,9.93
2022-11-10T00:21:59.261Z,9.94
2022-11-10T00:22:11.821Z,9.94
2022-11-10T00:22:26.107Z,9.93
2022-11-10T00:22:40.625Z,9.93
2022-11-10T00:22:54.877Z,9.94
2022-11-10T00:23:08.444Z,9.95
2022-11-10T00:23:21.266Z,9.93
2022-11-10T00:23:34.407Z,9.95
2022-11-10T00:23:47.773Z,9.95
2022-11-10T00:24:00.340Z,9.95
2022-11-10T00:24:13.136Z,9.97
2022-11-10T00:24:27.226Z,9.96
2022-11-10T00:24:39.823Z,9.96
2022-11-10T00:24:52.378Z,9.96
2022-11-10T00:25:05.834Z,9.97
2022-11-10T00:25:18.709Z,9.95
2022-11-10T00:25:33.656Z,9.97
2022-11-10T00:25:46.201Z,9.98
2022-11-10T00:25:59.103Z,9.97
2022-11-10T00:26:14.322Z,9.96
2022-11-10T00:26:27.093Z,9.96
2022-11-10T00:26:40.624Z,9.97
2022-11-10T00:26:53.272Z,9.96
2022-11-10T00:27:05.858Z,9.96
2022-11-10T00:27:18.512Z,9.97
2022-11-10T00:27:32.330Z,9.99
2022-11-10T00:27:45.170Z,9.98
2022-11-10T00:28:00.036Z,9.97
2022-11-10T00:28:12.614Z,9.98
2022-11-10T00:28:25.980Z,9.98
2022-11-10T00:28:38.570Z,9.97
2022-11-10T00:28:51.174Z,9.98
2022-11-10T00:29:03.962Z,9.99
2022-11-10T00:29:17.532Z,9.97
2022-11-10T00:29:30.144Z,9.98
2022-11-10T00:29:42.722Z,9.99
2022-11-10T00:29:55.339Z,9.97
2022-11-10T00:30:08.443Z,9.99
2022-11-10T00:30:21.023Z,10.01
2022-11-10T00:30:33.594Z,9.98
2022-11-10T00:30:48.536Z,9.99
2022-11-10T00:31:06.618Z,9.99
2022-11-10T00:31:19.221Z,9.99
2022-11-10T00:31:31.933Z,10.00
2022-11-10T00:31:44.507Z,10.00
2022-11-10T00:31:57.092Z,10.00
2022-11-10T00:32:11.510Z,10.00
2022-11-10T00:32:24.123Z,9.97
2022-11-10T00:32:36.716Z,9.98
2022-11-10T00:32:49.554Z,9.99
2022-11-10T00:33:02.134Z,9.98
2022-11-10T00:33:14.712Z,9.99
2022-11-10T00:33:27.299Z,9.99
2022-11-10T00:33:43.833Z,9.99
2022-11-10T00:33:56.702Z,9.98
2022-11-10T00:34:13.778Z,9.99
2022-11-10T00:34:26.361Z,9.98
2022-11-10T00:34:38.927Z,9.97
2022-11-10T00:34:51.677Z,9.99
2022-11-10T00:35:05.808Z,9.99
2022-11-10T00:35:18.739Z,9.98
2022-11-10T00:35:31.428Z,10.00
2022-11-10T00:35:43.988Z,10.00
2022-11-10T00:36:00.129Z,9.99
2022-11-10T00:36:13.806Z,10.00
2022-11-10T00:36:26.439Z,10.01
2022-11-10T00:36:39.133Z,10.00
2022-11-10T00:36:51.861Z,10.00
2022-11-10T00:37:04.601Z,10.01
2022-11-10T00:37:17.429Z,10.00
2022-11-10T00:37:30.012Z,10.01
2022-11-10T00:37:43.693Z,10.02
2022-11-10T00:37:56.533Z,10.02
2022-11-10T00:38:09.228Z,10.02
2022-11-10T00:38:21.782Z,10.01
2022-11-10T00:38:34.513Z,10.00
2022-11-10T00:38:50.409Z,10.01
2022-11-10T00:39:04.441Z,10.02
2022-11-10T00:39:17.029Z,10.00
2022-11-10T00:39:29.608Z,10.02
2022-11-10T00:39:42.217Z,10.01
2022-11-10T00:39:54.806Z,10.01
2022-11-10T00:40:09.267Z,10.02
2022-11-10T00:40:22.004Z,10.03
2022-11-10T00:40:34.585Z,10.03
2022-11-10T00:40:47.903Z,10.02
2022-11-10T00:41:00.996Z,10.02
2022-11-10T00:41:13.579Z,10.05
2022-11-10T00:41:26.163Z,10.04
2022-11-10T00:41:39.735Z,10.03
2022-11-10T00:41:52.316Z,10.03
2022-11-10T00:42:05.485Z,10.04
2022-11-10T00:42:18.105Z,10.03
2022-11-10T00:42:30.660Z,10.04
2022-11-10T00:42:43.271Z,10.03
2022-11-10T00:42:55.866Z,10.04
2022-11-10T00:43:09.695Z,10.04
2022-11-10T00:43:26.311Z,10.03
2022-11-10T00:43:39.562Z,10.05
2022-11-10T00:43:52.242Z,10.04
2022-11-10T00:44:04.960Z,10.03
2022-11-10T00:44:18.546Z,10.05
2022-11-10T00:44:31.125Z,10.04
2022-11-10T00:44:43.724Z,10.03
2022-11-10T00:44:56.285Z,10.04
2022-11-10T00:45:10.277Z,10.03
2022-11-10T00:45:22.962Z,10.04
2022-11-10T00:45:35.551Z,10.05
2022-11-10T00:45:50.491Z,10.06
2022-11-10T00:46:03.127Z,10.08
2022-11-10T00:46:15.949Z,10.05
2022-11-10T00:46:28.559Z,10.06
2022-11-10T00:46:41.153Z,10.05
2022-11-10T00:46:53.733Z,10.06
2022-11-10T00:47:06.679Z,10.05
2022-11-10T00:47:19.272Z,10.05
2022-11-10T00:47:32.832Z,10.07
2022-11-10T00:47:45.869Z,10.04
2022-11-10T00:47:58.430Z,10.05
2022-11-10T00:48:11.251Z,10.05
2022-11-10T00:48:24.298Z,10.05
2022-11-10T00:48:37.918Z,10.04
2022-11-10T00:48:50.571Z,10.05
2022-11-10T00:49:03.415Z,10.04
2022-11-10T00:49:16.003Z,10.05
2022-11-10T00:49:28.787Z,10.04
2022-11-10T00:49:41.354Z,10.06
2022-11-10T00:49:53.965Z,10.08
2022-11-10T00:50:08.835Z,10.07
2022-11-10T00:50:21.520Z,10.09
2022-11-10T00:50:34.132Z,10.05
2022-11-10T00:50:46.752Z,10.09
2022-11-10T00:50:59.314Z,10.09
2022-11-10T00:51:21.077Z,10.10
2022-11-10T00:51:34.740Z,10.08
2022-11-10T00:51:47.354Z,10.09
2022-11-10T00:51:59.967Z,10.07
2022-11-10T00:52:12.531Z,10.08
2022-11-10T00:52:25.118Z,10.10
2022-11-10T00:52:37.730Z,10.09
2022-11-10T00:52:50.292Z,10.09
2022-11-10T00:53:02.897Z,10.10
2022-11-10T00:53:16.869Z,10.11
2022-11-10T00:53:29.459Z,10.12
2022-11-10T00:53:42.024Z,10.11
2022-11-10T00:53:55.270Z,10.12
2022-11-10T00:54:08.095Z,10.11
2022-11-10T00:54:20.956Z,10.10
2022-11-10T00:54:34.542Z,10.11
2022-11-10T00:54:47.127Z,10.12
2022-11-10T00:54:59.693Z,10.11
2022-11-10T00:55:12.296Z,10.12
2022-11-10T00:55:24.891Z,10.10
2022-11-10T00:55:38.770Z,10.11
2022-11-10T00:55:52.462Z,10.11
2022-11-10T00:56:05.317Z,10.10
2022-11-10T00:56:18.070Z,10.12
2022-11-10T00:56:30.718Z,10.13
2022-11-10T00:56:43.287Z,10.12
2022-11-10T00:56:56.032Z,10.12
2022-11-10T00:57:08.626Z,10.13
2022-11-10T00:57:21.210Z,10.14
2022-11-10T00:57:34.824Z,10.14
2022-11-10T00:57:47.438Z,10.15
2022-11-10T00:58:00.000Z,10.15
2022-11-10T00:58:12.967Z,10.14
2022-11-10T00:58:25.608Z,10.13
2022-11-10T00:58:38.191Z,10.15
2022-11-10T00:58:51.838Z,10.14
2022-11-10T00:59:04.606Z,10.15
2022-11-10T00:59:17.185Z,10.13
2022-11-10T00:59:29.766Z,10.13
2022-11-10T00:59:42.364Z,10.13
2022-11-10T00:59:54.951Z,10.13
2022-11-10T01:00:10.463Z,10.13
2022-11-10T01:00:23.162Z,10.13
2022-11-10T01:00:35.776Z,10.13
2022-11-10T01:00:49.820Z,10.13
2022-11-10T01:01:03.232Z,10.14
2022-11-10T01:01:17.148Z,10.15
2022-11-10T01:01:29.817Z,10.15
2022-11-10T01:01:43.442Z,10.14
2022-11-10T01:01:56.225Z,10.14
2022-11-10T01:02:08.825Z,10.14
2022-11-10T01:02:21.438Z,10.14
2022-11-10T01:02:34.031Z,10.14
2022-11-10T01:02:46.830Z,10.13
2022-11-10T01:03:02.632Z,10.12
2022-11-10T01:03:16.570Z,10.11
2022-11-10T01:03:29.186Z,10.13
2022-11-10T01:03:41.975Z,10.10
2022-11-10T01:03:55.414Z,10.10
2022-11-10T01:04:08.216Z,10.11
2022-11-10T01:04:21.781Z,10.12
2022-11-10T01:04:34.618Z,10.12
2022-11-10T01:04:47.210Z,10.11
2022-11-10T01:04:59.828Z,10.11
2022-11-10T01:05:12.433Z,10.10
2022-11-10T01:05:25.070Z,10.11
2022-11-10T01:05:38.042Z,10.11
2022-11-10T01:05:51.628Z,10.11
2022-11-10T01:06:05.554Z,10.10
2022-11-10T01:06:20.579Z,10.11
2022-11-10T01:06:33.270Z,10.12
2022-11-10T01:06:48.061Z,10.10
2022-11-10T01:07:00.749Z,10.09
2022-11-10T01:07:13.513Z,10.09
2022-11-10T01:07:26.191Z,10.09
2022-11-10T01:07:39.799Z,10.10
2022-11-10T01:07:52.348Z,10.09
2022-11-10T01:08:05.321Z,10.12
2022-11-10T01:08:18.172Z,10.11
2022-11-10T01:08:30.740Z,10.10
2022-11-10T01:08:43.802Z,10.10
2022-11-10T01:08:57.409Z,10.10
2022-11-10T01:09:10.014Z,10.10
2022-11-10T01:09:22.639Z,10.10
2022-11-10T01:09:35.198Z,10.11
2022-11-10T01:09:47.823Z,10.10
2022-11-10T01:10:00.398Z,10.10
2022-11-10T01:10:14.004Z,10.07
2022-11-10T01:10:27.134Z,10.09
2022-11-10T01:10:39.745Z,10.10
2022-11-10T01:10:52.338Z,10.10
2022-11-10T01:11:07.272Z,10.09
2022-11-10T01:11:21.955Z,10.09
2022-11-10T01:11:35.521Z,10.08
2022-11-10T01:11:48.078Z,10.10
2022-11-10T01:12:00.684Z,10.10
2022-11-10T01:12:14.510Z,10.10
2022-11-10T01:12:29.290Z,10.10
2022-11-10T01:12:41.894Z,10.09
2022-11-10T01:12:55.487Z,10.10
2022-11-10T01:13:08.107Z,10.06
2022-11-10T01:13:21.300Z,10.09
2022-11-10T01:13:34.589Z,10.09
2022-11-10T01:13:47.455Z,10.09
2022-11-10T01:14:00.069Z,10.08
2022-11-10T01:14:13.726Z,10.09
2022-11-10T01:14:26.361Z,10.10
2022-11-10T01:14:39.164Z,10.09
2022-11-10T01:14:51.744Z,10.09
2022-11-10T01:15:04.935Z,10.06
2022-11-10T01:15:17.575Z,10.09
2022-11-10T01:15:31.145Z,10.09
2022-11-10T01:15:43.721Z,10.10
2022-11-10T01:16:00.058Z,10.10
2022-11-10T01:16:15.038Z,10.09
2022-11-10T01:16:31.045Z,10.10
2022-11-10T01:16:43.648Z,10.07
2022-11-10T01:16:56.256Z,10.10
2022-11-10T01:17:08.843Z,10.07
2022-11-10T01:17:22.478Z,10.09
2022-11-10T01:17:35.329Z,10.10
2022-11-10T01:17:48.090Z,10.09
2022-11-10T01:18:00.667Z,10.10
2022-11-10T01:18:13.246Z,10.10
2022-11-10T01:18:26.097Z,10.09
2022-11-10T01:18:39.893Z,10.09
2022-11-10T01:18:54.705Z,10.12
2022-11-10T01:19:07.316Z,10.10
2022-11-10T01:19:19.878Z,10.11
2022-11-10T01:19:32.498Z,10.09
2022-11-10T01:19:45.129Z,10.11
2022-11-10T01:19:57.722Z,10.09
2022-11-10T01:20:12.513Z,10.12
2022-11-10T01:20:25.724Z,10.09
2022-11-10T01:20:38.392Z,10.10
2022-11-10T01:20:51.291Z,10.10
2022-11-10T01:21:04.712Z,10.09
2022-11-10T01:21:17.546Z,10.10
2022-11-10T01:21:31.778Z,10.10
2022-11-10T01:21:44.350Z,10.08
2022-11-10T01:21:56.943Z,10.07
2022-11-10T01:22:09.521Z,10.09
2022-11-10T01:22:22.114Z,10.07
2022-11-10T01:22:35.365Z,10.09
2022-11-10T01:22:48.078Z,10.09
2022-11-10T01:23:02.033Z,10.11
2022-11-10T01:23:14.600Z,10.11
2022-11-10T01:23:28.064Z,10.07
2022-11-10T01:23:40.624Z,10.09
2022-11-10T01:23:53.858Z,10.09
2022-11-10T01:24:07.129Z,10.08
2022-11-10T01:24:21.535Z,10.08
2022-11-10T01:24:35.084Z,10.09
2022-11-10T01:24:47.661Z,10.07
2022-11-10T01:25:00.239Z,10.09
2022-11-10T01:25:12.829Z,10.10
2022-11-10T01:25:25.396Z,10.08
2022-11-10T01:25:37.970Z,10.10
2022-11-10T01:25:50.618Z,10.07
2022-11-10T01:26:07.831Z,10.07
2022-11-10T01:26:21.261Z,10.08
2022-11-10T01:26:33.823Z,10.09
2022-11-10T01:26:46.435Z,10.09
2022-11-10T01:26:59.015Z,10.09
2022-11-10T01:27:11.608Z,10.10
2022-11-10T01:27:25.222Z,10.09
2022-11-10T01:27:37.862Z,10.08
2022-11-10T01:27:50.855Z,10.09
2022-11-10T01:28:03.602Z,10.09
2022-11-10T01:28:16.183Z,10.09
2022-11-10T01:28:29.623Z,10.09
2022-11-10T01:28:43.273Z,10.10
2022-11-10T01:28:55.913Z,10.10
2022-11-10T01:29:08.476Z,10.10
2022-11-10T01:29:21.141Z,10.11
2022-11-10T01:29:33.688Z,10.11
2022-11-10T01:29:46.724Z,10.10
2022-11-10T01:29:59.385Z,10.11
2022-11-10T01:30:13.954Z,10.09
2022-11-10T01:30:26.556Z,10.10
2022-11-10T01:30:39.143Z,10.11
2022-11-10T01:30:58.289Z,10.10
2022-11-10T01:31:12.848Z,10.09
2022-11-10T01:31:25.436Z,10.10
2022-11-10T01:31:38.014Z,10.11
2022-11-10T01:31:51.588Z,10.10
2022-11-10T01:32:04.385Z,10.09
2022-11-10T01:32:16.996Z,10.09
2022-11-10T01:32:29.597Z,10.10
2022-11-10T01:32:42.184Z,10.11
2022-11-10T01:32:55.221Z,10.09
2022-11-10T01:33:08.267Z,10.10
2022-11-10T01:33:21.185Z,10.10
2022-11-10T01:33:35.680Z,10.10
2022-11-10T01:33:48.344Z,10.11
2022-11-10T01:34:00.959Z,10.11
2022-11-10T01:34:13.530Z,10.10
2022-11-10T01:34:26.149Z,10.10
2022-11-10T01:34:38.749Z,10.10
2022-11-10T01:34:52.424Z,10.10
2022-11-10T01:35:06.085Z,10.10
2022-11-10T01:35:18.652Z,10.10
2022-11-10T01:35:31.272Z,10.10
2022-11-10T01:35:43.834Z,10.09
2022-11-10T01:35:56.720Z,10.07
2022-11-10T01:36:10.700Z,10.10
2022-11-10T01:36:24.270Z,10.11
2022-11-10T01:36:36.847Z,10.08
2022-11-10T01:36:49.415Z,10.10
2022-11-10T01:37:02.006Z,10.09
2022-11-10T01:37:14.606Z,10.09
2022-11-10T01:37:27.416Z,10.09
2022-11-10T01:37:41.163Z,10.09
2022-11-10T01:37:53.802Z,10.09
2022-11-10T01:38:06.656Z,10.10
2022-11-10T01:38:19.282Z,10.09
2022-11-10T01:38:33.732Z,10.09
2022-11-10T01:38:46.610Z,10.09
2022-11-10T01:39:01.926Z,10.11
2022-11-10T01:39:14.496Z,10.11
2022-11-10T01:39:27.130Z,10.10
2022-11-10T01:39:39.716Z,10.07
2022-11-10T01:39:52.325Z,10.07
2022-11-10T01:40:05.995Z,10.09
2022-11-10T01:40:18.864Z,10.07
2022-11-10T01:40:32.549Z,10.11
2022-11-10T01:40:45.422Z,10.09
2022-11-10T01:40:58.723Z,10.11
2022-11-10T01:41:13.632Z,10.11
2022-11-10T01:41:26.251Z,10.10
2022-11-10T01:41:38.910Z,10.10
2022-11-10T01:41:52.482Z,10.09
2022-11-10T01:42:05.438Z,10.11
2022-11-10T01:42:25.085Z,10.10
2022-11-10T01:42:49.897Z,10.10
2022-11-10T01:43:02.540Z,10.10
2022-11-10T01:43:16.669Z,10.09
2022-11-10T01:43:29.739Z,10.09
2022-11-10T01:43:42.559Z,10.11
2022-11-10T01:44:14.023Z,10.10
2022-11-10T01:44:26.923Z,10.10
2022-11-10T01:44:41.908Z,10.12
2022-11-10T01:45:31.949Z,10.10
2022-11-10T01:45:51.217Z,10.10
2022-11-10T01:46:07.074Z,10.10
2022-11-10T01:46:20.659Z,10.11
2022-11-10T01:46:33.221Z,10.11
2022-11-10T01:46:45.835Z,10.12
2022-11-10T01:46:58.419Z,10.11
2022-11-10T01:47:11.011Z,10.10
2022-11-10T01:47:23.581Z,10.12
2022-11-10T01:47:36.180Z,10.12
2022-11-10T01:47:49.546Z,10.12
2022-11-10T01:48:05.975Z,10.11
2022-11-10T01:48:25.659Z,10.11
2022-11-10T01:48:42.547Z,10.11
2022-11-10T01:48:59.247Z,10.10
2022-11-10T01:49:13.613Z,10.11
2022-11-10T01:49:28.348Z,10.11
2022-11-10T01:49:40.956Z,10.11
2022-11-10T01:49:53.586Z,10.11
2022-11-10T01:50:07.582Z,10.13
2022-11-10T01:50:23.349Z,10.14
2022-11-10T01:50:39.657Z,10.12
2022-11-10T01:50:52.686Z,10.11
2022-11-10T01:51:10.079Z,10.13
2022-11-10T01:51:28.300Z,10.12
2022-11-10T01:51:45.105Z,10.12
2022-11-10T01:52:00.970Z,10.11
2022-11-10T01:52:15.540Z,10.12
2022-11-10T01:52:28.186Z,10.11
2022-11-10T01:52:42.362Z,10.10
2022-11-10T01:53:00.728Z,10.09
2022-11-10T01:53:19.121Z,10.09
2022-11-10T01:53:35.576Z,10.11
2022-11-10T01:53:54.891Z,10.09
2022-11-10T01:54:11.064Z,10.11
2022-11-10T01:54:26.772Z,10.12
2022-11-10T01:54:42.885Z,10.11
2022-11-10T01:54:55.626Z,10.12
2022-11-10T01:55:08.640Z,10.11
2022-11-10T01:55:21.754Z,10.11
2022-11-10T01:55:37.091Z,10.10
2022-11-10T01:55:50.786Z,10.11
2022-11-10T01:56:04.271Z,10.12
2022-11-10T01:56:18.797Z,10.12
2022-11-10T01:56:35.166Z,10.10
2022-11-10T01:56:54.437Z,10.11
2022-11-10T01:57:10.178Z,10.13
2022-11-10T01:57:22.859Z,10.10
2022-11-10T01:57:37.166Z,10.11
2022-11-10T01:57:49.998Z,10.10
2022-11-10T01:58:02.628Z,10.10
2022-11-10T01:58:17.693Z,10.11
2022-11-10T01:58:39.884Z,10.10
2022-11-10T01:58:58.106Z,10.10
2022-11-10T01:59:15.245Z,10.11
2022-11-10T01:59:30.634Z,10.11
2022-11-10T01:59:47.354Z,10.09
2022-11-10T02:00:01.278Z,10.11
2022-11-10T02:00:14.219Z,10.11
2022-11-10T02:00:26.884Z,10.11
2022-11-10T02:00:39.561Z,10.11
2022-11-10T02:00:52.233Z,10.12
2022-11-10T02:01:06.498Z,10.11
2022-11-10T02:01:20.357Z,10.10
2022-11-10T02:01:33.031Z,10.09
2022-11-10T02:01:48.165Z,10.11
2022-11-10T02:02:10.039Z,10.07
2022-11-10T02:02:28.681Z,10.09
2022-11-10T02:02:48.089Z,10.10
2022-11-10T02:03:05.886Z,10.10
2022-11-10T02:03:25.530Z,10.11
2022-11-10T02:03:43.388Z,10.11
2022-11-10T02:04:01.575Z,10.10
2022-11-10T02:04:17.941Z,10.11
2022-11-10T02:04:31.120Z,10.10
2022-11-10T02:04:45.091Z,10.11
2022-11-10T02:04:59.813Z,10.09
2022-11-10T02:05:12.367Z,10.09
2022-11-10T02:05:26.604Z,10.10
2022-11-10T02:05:39.281Z,10.09
2022-11-10T02:05:52.027Z,10.10
2022-11-10T02:06:05.196Z,10.09
2022-11-10T02:06:21.034Z,10.09
2022-11-10T02:06:37.787Z,10.09
2022-11-10T02:06:51.310Z,10.08
2022-11-10T02:07:04.683Z,10.09
2022-11-10T02:07:17.964Z,10.09
2022-11-10T02:07:32.045Z,10.10
2022-11-10T02:07:46.061Z,10.11
2022-11-10T02:07:59.547Z,10.10
2022-11-10T02:08:16.849Z,10.10
2022-11-10T02:08:29.720Z,10.09
2022-11-10T02:08:43.426Z,10.10
2022-11-10T02:08:58.480Z,10.10
2022-11-10T02:09:11.422Z,10.10
2022-11-10T02:09:24.305Z,10.09
2022-11-10T02:09:38.222Z,10.12
2022-11-10T02:09:52.691Z,10.10
2022-11-10T02:10:13.738Z,10.11
2022-11-10T02:10:26.334Z,10.12
2022-11-10T02:10:38.905Z,10.12
2022-11-10T02:10:51.494Z,10.11
2022-11-10T02:11:04.408Z,10.10
2022-11-10T02:11:17.204Z,10.11
2022-11-10T02:11:32.222Z,10.11
2022-11-10T02:11:45.986Z,10.10
2022-11-10T02:11:58.587Z,10.10
2022-11-10T02:12:11.956Z,10.11
2022-11-10T02:12:37.161Z,10.11
2022-11-10T02:12:50.521Z,10.12
2022-11-10T02:13:03.140Z,10.11
2022-11-10T02:13:15.743Z,10.11
2022-11-10T02:13:29.449Z,10.11
2022-11-10T02:13:42.801Z,10.10
2022-11-10T02:13:55.964Z,10.11
2022-11-10T02:14:09.376Z,10.10
2022-11-10T02:14:22.122Z,10.10
2022-11-10T02:14:35.009Z,10.09
2022-11-10T02:14:48.598Z,10.11
2022-11-10T02:15:01.158Z,10.09
2022-11-10T02:15:16.546Z,10.10
2022-11-10T02:15:29.229Z,10.11
2022-11-10T02:15:42.245Z,10.07
2022-11-10T02:15:55.653Z,10.10
2022-11-10T02:16:10.721Z,10.07
2022-11-10T02:16:24.837Z,10.09
2022-11-10T02:16:37.802Z,10.07
2022-11-10T02:16:50.471Z,10.11
2022-11-10T02:17:03.205Z,10.09
2022-11-10T02:17:16.600Z,10.10
2022-11-10T02:17:29.419Z,10.09
2022-11-10T02:17:42.541Z,10.09
2022-11-10T02:17:55.334Z,10.07
2022-11-10T02:18:09.174Z,10.07
2022-11-10T02:18:21.736Z,10.09
2022-11-10T02:18:34.606Z,10.09
2022-11-10T02:18:48.008Z,10.09
2022-11-10T02:19:13.603Z,10.10
2022-11-10T02:19:26.837Z,10.10
2022-11-10T02:19:42.559Z,10.10
2022-11-10T02:19:59.026Z,10.11
2022-11-10T02:20:15.632Z,10.10
2022-11-10T02:20:28.240Z,10.11
2022-11-10T02:20:45.494Z,10.10
2022-11-10T02:20:59.107Z,10.10
2022-11-10T02:21:11.686Z,10.10
2022-11-10T02:21:24.644Z,10.09
2022-11-10T02:21:37.376Z,10.10
2022-11-10T02:21:50.110Z,10.11
2022-11-10T02:22:02.702Z,10.09
2022-11-10T02:22:15.284Z,10.10
2022-11-10T02:22:27.930Z,10.10
2022-11-10T02:22:41.744Z,10.10
2022-11-10T02:22:56.626Z,10.10
2022-11-10T02:23:13.910Z,10.09
2022-11-10T02:23:49.644Z,10.10
2022-11-10T02:24:03.387Z,10.09
2022-11-10T02:24:16.098Z,10.10
2022-11-10T02:24:28.680Z,10.09
2022-11-10T02:24:41.519Z,10.10
2022-11-10T02:24:54.091Z,10.09
2022-11-10T02:25:07.766Z,10.09
2022-11-10T02:25:21.789Z,10.10
2022-11-10T02:25:36.191Z,10.11
2022-11-10T02:25:48.761Z,10.10
2022-11-10T02:26:02.780Z,10.10
2022-11-10T02:26:18.120Z,10.11
2022-11-10T02:26:30.915Z,10.11
2022-11-10T02:26:46.927Z,10.10
2022-11-10T02:27:00.598Z,10.11
2022-11-10T02:27:14.540Z,10.11
2022-11-10T02:27:27.167Z,10.10
2022-11-10T02:27:39.743Z,10.10
2022-11-10T02:27:52.311Z,10.12
2022-11-10T02:28:05.522Z,10.11
2022-11-10T02:28:18.106Z,10.09
2022-11-10T02:28:35.681Z,10.10
2022-11-10T02:28:48.254Z,10.10
2022-11-10T02:29:00.842Z,10.10
2022-11-10T02:29:16.145Z,10.10
2022-11-10T02:29:28.792Z,10.11
2022-11-10T02:29:42.898Z,10.10
2022-11-10T02:29:55.525Z,10.11
2022-11-10T02:30:09.315Z,10.10
2022-11-10T02:30:25.243Z,10.10
2022-11-10T02:30:40.312Z,10.11
2022-11-10T02:30:53.813Z,10.09
2022-11-10T02:31:08.644Z,10.10
2022-11-10T02:31:22.265Z,10.10
2022-11-10T02:31:34.851Z,10.09
2022-11-10T02:31:47.637Z,10.10
2022-11-10T02:32:00.197Z,10.07
2022-11-10T02:32:12.780Z,10.09
2022-11-10T02:32:25.403Z,10.08
2022-11-10T02:32:38.028Z,10.09
2022-11-10T02:32:50.627Z,10.07
2022-11-10T02:33:04.612Z,10.06
2022-11-10T02:33:17.897Z,10.08
2022-11-10T02:33:30.632Z,10.05
2022-11-10T02:33:43.222Z,10.08
2022-11-10T02:33:55.780Z,10.09
2022-11-10T02:34:09.452Z,10.09
2022-11-10T02:34:22.041Z,10.06
2022-11-10T02:34:34.619Z,10.08
2022-11-10T02:34:47.483Z,10.08
2022-11-10T02:35:00.072Z,10.09
2022-11-10T02:35:12.667Z,10.09
2022-11-10T02:35:25.248Z,10.09
2022-11-10T02:35:37.807Z,10.10
2022-11-10T02:35:52.804Z,10.07
2022-11-10T02:36:05.848Z,10.08
2022-11-10T02:36:18.397Z,10.07
2022-11-10T02:36:31.210Z,10.09
2022-11-10T02:36:43.895Z,10.08
2022-11-10T02:36:56.469Z,10.09
2022-11-10T02:37:10.396Z,10.09
2022-11-10T02:37:22.968Z,10.10
2022-11-10T02:37:35.667Z,10.07
2022-11-10T02:37:48.475Z,10.08
2022-11-10T02:38:01.055Z,10.06
2022-11-10T02:38:14.515Z,10.07
2022-11-10T02:38:27.119Z,10.09
2022-11-10T02:38:40.772Z,10.04
2022-11-10T02:38:53.341Z,10.07
2022-11-10T02:39:05.956Z,10.05
2022-11-10T02:39:18.527Z,10.05
2022-11-10T02:39:31.106Z,10.07
2022-11-10T02:39:43.944Z,10.08
2022-11-10T02:39:56.525Z,10.07
2022-11-10T02:40:10.881Z,10.07
2022-11-10T02:40:23.599Z,10.06
2022-11-10T02:40:36.182Z,10.07
2022-11-10T02:40:49.579Z,10.09
2022-11-10T02:41:02.195Z,10.07
2022-11-10T02:41:14.770Z,10.08
2022-11-10T02:41:27.347Z,10.09
2022-11-10T02:41:40.913Z,10.05
2022-11-10T02:41:53.459Z,10.05
2022-11-10T02:42:10.389Z,10.06
2022-11-10T02:42:23.070Z,10.05
2022-11-10T02:42:35.710Z,10.06
2022-11-10T02:42:48.283Z,10.05
2022-11-10T02:43:00.967Z,10.05
2022-11-10T02:43:18.274Z,10.05
2022-11-10T02:43:30.957Z,10.08
2022-11-10T02:43:43.607Z,10.05
2022-11-10T02:43:57.321Z,10.06
2022-11-10T02:44:10.116Z,10.06
2022-11-10T02:44:22.713Z,10.05
2022-11-10T02:44:36.325Z,10.05
2022-11-10T02:44:49.198Z,10.07
2022-11-10T02:45:01.867Z,10.08
2022-11-10T02:45:14.533Z,10.09
2022-11-10T02:45:27.156Z,10.07
2022-11-10T02:45:44.155Z,10.06
2022-11-10T02:45:57.723Z,10.05
2022-11-10T02:46:10.431Z,10.07
2022-11-10T02:46:23.008Z,10.07
2022-11-10T02:46:37.583Z,10.06
2022-11-10T02:46:51.183Z,10.05
2022-11-10T02:47:03.950Z,10.05
2022-11-10T02:47:16.561Z,10.06
2022-11-10T02:47:29.156Z,10.05
2022-11-10T02:47:41.722Z,10.05
2022-11-10T02:47:54.323Z,10.05
2022-11-10T02:48:07.218Z,10.05
2022-11-10T02:48:20.826Z,10.06
2022-11-10T02:48:33.759Z,10.06
2022-11-10T02:48:46.336Z,10.05
2022-11-10T02:48:59.108Z,10.06
2022-11-10T02:49:11.715Z,10.04
2022-11-10T02:49:24.289Z,10.04
2022-11-10T02:49:37.907Z,10.05
2022-11-10T02:49:50.735Z,10.04
2022-11-10T02:50:03.481Z,10.05
2022-11-10T02:50:16.848Z,10.04
2022-11-10T02:50:29.412Z,10.03
2022-11-10T02:50:42.453Z,10.03
2022-11-10T02:50:57.372Z,10.03
2022-11-10T02:51:09.957Z,10.05
2022-11-10T02:51:22.573Z,10.05
2022-11-10T02:51:35.228Z,10.05
2022-11-10T02:51:47.827Z,10.05
2022-11-10T02:52:00.415Z,10.04
2022-11-10T02:52:13.021Z,10.04
2022-11-10T02:52:26.641Z,10.05
2022-11-10T02:52:39.193Z,10.03
2022-11-10T02:52:51.803Z,10.04
2022-11-10T02:53:05.145Z,10.04
2022-11-10T02:53:17.745Z,10.04
2022-11-10T02:53:30.546Z,10.02
2022-11-10T02:53:43.170Z,10.03
2022-11-10T02:53:56.758Z,10.04
2022-11-10T02:54:09.349Z,10.02
2022-11-10T02:54:22.097Z,10.02
2022-11-10T02:54:34.710Z,10.01
2022-11-10T02:54:47.286Z,10.02
2022-11-10T02:55:00.144Z,10.02
2022-11-10T02:55:12.697Z,10.02
2022-11-10T02:55:25.330Z,10.01
2022-11-10T02:55:37.893Z,10.02
2022-11-10T02:55:51.506Z,10.03
2022-11-10T02:56:04.348Z,10.02
2022-11-10T02:56:16.939Z,10.02
2022-11-10T02:56:29.516Z,10.02
2022-11-10T02:56:42.100Z,10.01
2022-11-10T02:56:54.671Z,10.02
2022-11-10T02:57:08.612Z,10.03
2022-11-10T02:57:21.203Z,10.03
2022-11-10T02:57:33.781Z,10.03
2022-11-10T02:57:46.377Z,10.02
2022-11-10T02:57:59.121Z,10.04
2022-11-10T02:58:11.702Z,10.02
2022-11-10T02:58:25.318Z,10.01
2022-11-10T02:58:38.035Z,10.00
2022-11-10T02:58:50.647Z,10.02